Rogue River, Oregon
Current Conditions -  °F | °C
As of 4:27 PM on Monday 20 Oct 2014 (Local Time) from KSXT Reporting Station
Light Rain Light Rain  
Wind Chill: 40°   Ceiling: 1900
Heat Index: 44°   Visibility: 0.75mi
Dew Point: 43°   Wind: 8mph
Humidity: 96%   Direction: 260°W
Pressure: 29.88"   Gusts: NA
Location:  42.44°N, 123.17°W
Report Text: KSXT 202327Z AUTO 26007KT 220V310 3/4SM -RA BR SCT003 BKN019 OVC026 07/06 A2988 RMK AO2 RAB02 P0000 T00670061
Loading
Personal Weather Stations






























Interactive Weather Map
Tropical Storm Tracking
New forecast layout! Learn more

10-Day Weather Forecast

Advertisements
Track Severe Weather on mobile